sensor_id;sensor_type;location;lat;lon;timestamp;temperature;humidity
18160;DHT22;9205;52.032;4.314;2022-11-20T00:00:52;1.60;99.90
18160;DHT22;9205;52.032;4.314;2022-11-20T00:03:19;1.60;99.90
18160;DHT22;9205;52.032;4.314;2022-11-20T00:05:46;1.40;99.90
18160;DHT22;9205;52.032;4.314;2022-11-20T00:08:14;1.60;99.90
18160;DHT22;9205;52.032;4.314;2022-11-20T00:10:41;1.60;99.90
18160;DHT22;9205;52.032;4.314;2022-11-20T00:13:08;1.50;99.90
18160;DHT22;9205;52.032;4.314;2022-11-20T00:15:37;1.50;99.90
18160;DHT22;9205;52.032;4.314;2022-11-20T00:18:04;1.60;99.90
18160;DHT22;9205;52.032;4.314;2022-11-20T00:20:31;1.60;99.90
18160;DHT22;9205;52.032;4.314;2022-11-20T00:22:58;1.60;99.90
18160;DHT22;9205;52.032;4.314;2022-11-20T00:25:25;1.30;99.90
18160;DHT22;9205;52.032;4.314;2022-11-20T00:27:53;1.30;99.90
18160;DHT22;9205;52.032;4.314;2022-11-20T00:30:20;1.30;99.90
18160;DHT22;9205;52.032;4.314;2022-11-20T00:32:48;1.20;99.90
18160;DHT22;9205;52.032;4.314;2022-11-20T00:35:15;1.10;99.90
18160;DHT22;9205;52.032;4.314;2022-11-20T00:37:43;1.20;99.90
18160;DHT22;9205;52.032;4.314;2022-11-20T00:40:11;1.30;99.90
18160;DHT22;9205;52.032;4.314;2022-11-20T00:42:40;1.40;99.90
18160;DHT22;9205;52.032;4.314;2022-11-20T00:45:07;1.50;99.90
18160;DHT22;9205;52.032;4.314;2022-11-20T00:47:34;1.50;99.90
18160;DHT22;9205;52.032;4.314;2022-11-20T00:50:04;1.50;99.90
18160;DHT22;9205;52.032;4.314;2022-11-20T00:52:31;1.40;99.90
18160;DHT22;9205;52.032;4.314;2022-11-20T00:54:59;1.40;99.90
18160;DHT22;9205;52.032;4.314;2022-11-20T00:57:26;1.30;99.90
18160;DHT22;9205;52.032;4.314;2022-11-20T00:59:53;1.40;99.90
18160;DHT22;9205;52.032;4.314;2022-11-20T01:02:20;1.40;99.90
18160;DHT22;9205;52.032;4.314;2022-11-20T01:04:48;1.20;99.90
18160;DHT22;9205;52.032;4.314;2022-11-20T01:07:16;1.20;99.90
18160;DHT22;9205;52.032;4.314;2022-11-20T01:09:44;1.00;99.90
18160;DHT22;9205;52.032;4.314;2022-11-20T01:12:11;1.00;99.90
18160;DHT22;9205;52.032;4.314;2022-11-20T01:14:38;1.10;99.90
18160;DHT22;9205;52.032;4.314;2022-11-20T01:17:05;1.20;99.90
18160;DHT22;9205;52.032;4.314;2022-11-20T01:19:38;1.30;99.90
18160;DHT22;9205;52.032;4.314;2022-11-20T01:22:05;1.30;99.90
18160;DHT22;9205;52.032;4.314;2022-11-20T01:24:33;1.30;99.90
18160;DHT22;9205;52.032;4.314;2022-11-20T01:27:01;1.40;99.90
18160;DHT22;9205;52.032;4.314;2022-11-20T01:29:28;1.40;99.90
18160;DHT22;9205;52.032;4.314;2022-11-20T01:31:55;1.40;99.90
18160;DHT22;9205;52.032;4.314;2022-11-20T01:34:22;1.30;99.90
18160;DHT22;9205;52.032;4.314;2022-11-20T01:36:50;1.20;99.90
18160;DHT22;9205;52.032;4.314;2022-11-20T01:39:20;1.00;99.90
18160;DHT22;9205;52.032;4.314;2022-11-20T01:41:51;1.00;99.90
18160;DHT22;9205;52.032;4.314;2022-11-20T01:44:54;1.10;99.90
18160;DHT22;9205;52.032;4.314;2022-11-20T01:47:30;1.20;99.90
18160;DHT22;9205;52.032;4.314;2022-11-20T01:50:09;1.20;99.90
18160;DHT22;9205;52.032;4.314;2022-11-20T01:52:47;1.10;99.90
18160;DHT22;9205;52.032;4.314;2022-11-20T01:55:19;1.20;99.90
18160;DHT22;9205;52.032;4.314;2022-11-20T01:57:52;1.10;99.90
18160;DHT22;9205;52.032;4.314;2022-11-20T02:00:21;1.10;99.90
18160;DHT22;9205;52.032;4.314;2022-11-20T02:02:51;1.10;99.90
18160;DHT22;9205;52.032;4.314;2022-11-20T02:05:25;1.20;99.90
18160;DHT22;9205;52.032;4.314;2022-11-20T02:07:57;1.20;99.90
18160;DHT22;9205;52.032;4.314;2022-11-20T02:10:27;1.20;99.90
18160;DHT22;9205;52.032;4.314;2022-11-20T02:12:56;1.10;99.90
18160;DHT22;9205;52.032;4.314;2022-11-20T02:15:42;1.10;99.90
18160;DHT22;9205;52.032;4.314;2022-11-20T02:18:11;1.10;99.90
18160;DHT22;9205;52.032;4.314;2022-11-20T02:20:42;1.10;99.90
18160;DHT22;9205;52.032;4.314;2022-11-20T02:23:14;1.10;99.90
18160;DHT22;9205;52.032;4.314;2022-11-20T02:25:49;1.10;99.90
18160;DHT22;9205;52.032;4.314;2022-11-20T02:28:18;1.10;99.90
18160;DHT22;9205;52.032;4.314;2022-11-20T02:30:45;1.10;99.90
18160;DHT22;9205;52.032;4.314;2022-11-20T02:33:12;1.10;99.90
18160;DHT22;9205;52.032;4.314;2022-11-20T02:35:42;0.90;99.90
18160;DHT22;9205;52.032;4.314;2022-11-20T02:38:11;0.90;99.90
18160;DHT22;9205;52.032;4.314;2022-11-20T02:40:39;1.10;99.90
18160;DHT22;9205;52.032;4.314;2022-11-20T02:43:08;1.10;99.90
18160;DHT22;9205;52.032;4.314;2022-11-20T02:45:38;1.00;99.90
18160;DHT22;9205;52.032;4.314;2022-11-20T02:48:06;1.00;99.90
18160;DHT22;9205;52.032;4.314;2022-11-20T02:50:37;1.10;99.90
18160;DHT22;9205;52.032;4.314;2022-11-20T02:53:06;1.00;99.90
18160;DHT22;9205;52.032;4.314;2022-11-20T02:55:33;1.10;99.90
18160;DHT22;9205;52.032;4.314;2022-11-20T02:58:01;1.10;99.90
18160;DHT22;9205;52.032;4.314;2022-11-20T03:00:30;0.90;99.90
18160;DHT22;9205;52.032;4.314;2022-11-20T03:02:57;1.00;99.90
18160;DHT22;9205;52.032;4.314;2022-11-20T03:05:25;1.10;99.90
18160;DHT22;9205;52.032;4.314;2022-11-20T03:07:52;1.00;99.90
18160;DHT22;9205;52.032;4.314;2022-11-20T03:10:19;0.90;99.90
18160;DHT22;9205;52.032;4.314;2022-11-20T03:12:46;0.90;99.90
18160;DHT22;9205;52.032;4.314;2022-11-20T03:15:13;1.00;99.90
18160;DHT22;9205;52.032;4.314;2022-11-20T03:17:42;1.00;99.90
18160;DHT22;9205;52.032;4.314;2022-11-20T03:20:10;1.00;99.90
18160;DHT22;9205;52.032;4.314;2022-11-20T03:22:38;0.90;99.90
18160;DHT22;9205;52.032;4.314;2022-11-20T03:25:05;1.00;99.90
18160;DHT22;9205;52.032;4.314;2022-11-20T03:27:34;1.10;99.90
18160;DHT22;9205;52.032;4.314;2022-11-20T03:30:01;1.00;99.90
18160;DHT22;9205;52.032;4.314;2022-11-20T03:32:29;1.10;99.90
18160;DHT22;9205;52.032;4.314;2022-11-20T03:34:57;0.90;99.90
18160;DHT22;9205;52.032;4.314;2022-11-20T03:37:24;0.90;99.90
18160;DHT22;9205;52.032;4.314;2022-11-20T03:39:52;1.00;99.90
18160;DHT22;9205;52.032;4.314;2022-11-20T03:42:19;1.00;99.90
18160;DHT22;9205;52.032;4.314;2022-11-20T03:45:04;1.00;99.90
18160;DHT22;9205;52.032;4.314;2022-11-20T03:47:32;1.00;99.90
18160;DHT22;9205;52.032;4.314;2022-11-20T03:50:01;1.00;99.90
18160;DHT22;9205;52.032;4.314;2022-11-20T03:52:28;0.90;99.90
18160;DHT22;9205;52.032;4.314;2022-11-20T03:54:55;0.90;99.90
18160;DHT22;9205;52.032;4.314;2022-11-20T03:57:22;0.90;99.90
18160;DHT22;9205;52.032;4.314;2022-11-20T03:59:49;1.00;99.90
18160;DHT22;9205;52.032;4.314;2022-11-20T04:02:16;0.90;99.90
18160;DHT22;9205;52.032;4.314;2022-11-20T04:04:43;1.10;99.90
18160;DHT22;9205;52.032;4.314;2022-11-20T04:07:12;0.80;99.90
18160;DHT22;9205;52.032;4.314;2022-11-20T04:09:39;0.60;99.90
18160;DHT22;9205;52.032;4.314;2022-11-20T04:12:06;0.80;99.90
18160;DHT22;9205;52.032;4.314;2022-11-20T04:14:33;0.50;99.90
18160;DHT22;9205;52.032;4.314;2022-11-20T04:17:01;0.50;99.90
18160;DHT22;9205;52.032;4.314;2022-11-20T04:19:28;0.60;99.90
18160;DHT22;9205;52.032;4.314;2022-11-20T04:21:55;0.50;99.90
18160;DHT22;9205;52.032;4.314;2022-11-20T04:24:24;0.40;99.90
18160;DHT22;9205;52.032;4.314;2022-11-20T04:26:51;0.50;99.90
18160;DHT22;9205;52.032;4.314;2022-11-20T04:29:18;0.50;99.90
18160;DHT22;9205;52.032;4.314;2022-11-20T04:31:45;0.40;99.90
18160;DHT22;9205;52.032;4.314;2022-11-20T04:34:12;0.60;99.90
18160;DHT22;9205;52.032;4.314;2022-11-20T04:36:39;0.70;99.90
18160;DHT22;9205;52.032;4.314;2022-11-20T04:39:12;0.70;99.90
18160;DHT22;9205;52.032;4.314;2022-11-20T04:41:42;0.80;99.90
18160;DHT22;9205;52.032;4.314;2022-11-20T04:44:10;0.70;99.90
18160;DHT22;9205;52.032;4.314;2022-11-20T04:46:41;0.70;99.90
18160;DHT22;9205;52.032;4.314;2022-11-20T04:49:10;0.80;99.90
18160;DHT22;9205;52.032;4.314;2022-11-20T04:51:38;0.80;99.90
18160;DHT22;9205;52.032;4.314;2022-11-20T04:54:05;0.90;99.90
18160;DHT22;9205;52.032;4.314;2022-11-20T04:56:32;0.80;99.90
18160;DHT22;9205;52.032;4.314;2022-11-20T04:59:04;0.80;99.90
18160;DHT22;9205;52.032;4.314;2022-11-20T05:01:31;0.80;99.90
18160;DHT22;9205;52.032;4.314;2022-11-20T05:03:58;0.80;99.90
18160;DHT22;9205;52.032;4.314;2022-11-20T05:06:25;0.70;99.90
18160;DHT22;9205;52.032;4.314;2022-11-20T05:08:53;0.70;99.90
18160;DHT22;9205;52.032;4.314;2022-11-20T05:11:20;0.60;99.90
18160;DHT22;9205;52.032;4.314;2022-11-20T05:13:48;0.70;99.90
18160;DHT22;9205;52.032;4.314;2022-11-20T05:16:18;0.70;99.90
18160;DHT22;9205;52.032;4.314;2022-11-20T05:18:47;0.80;99.90
18160;DHT22;9205;52.032;4.314;2022-11-20T05:21:15;0.80;99.90
18160;DHT22;9205;52.032;4.314;2022-11-20T05:23:44;0.90;99.90
18160;DHT22;9205;52.032;4.314;2022-11-20T05:26:15;0.60;99.90
18160;DHT22;9205;52.032;4.314;2022-11-20T05:28:43;0.70;99.90
18160;DHT22;9205;52.032;4.314;2022-11-20T05:31:12;0.60;99.90
18160;DHT22;9205;52.032;4.314;2022-11-20T05:33:43;0.70;99.90
18160;DHT22;9205;52.032;4.314;2022-11-20T05:36:13;0.70;99.90
18160;DHT22;9205;52.032;4.314;2022-11-20T05:38:41;0.80;99.90
18160;DHT22;9205;52.032;4.314;2022-11-20T05:41:10;0.90;99.90
18160;DHT22;9205;52.032;4.314;2022-11-20T05:43:40;0.80;99.90
18160;DHT22;9205;52.032;4.314;2022-11-20T05:46:10;0.80;99.90
18160;DHT22;9205;52.032;4.314;2022-11-20T05:48:39;0.70;99.90
18160;DHT22;9205;52.032;4.314;2022-11-20T05:51:10;0.80;99.90
18160;DHT22;9205;52.032;4.314;2022-11-20T05:53:39;0.90;99.90
18160;DHT22;9205;52.032;4.314;2022-11-20T05:56:09;0.90;99.90
18160;DHT22;9205;52.032;4.314;2022-11-20T05:58:39;0.90;99.90
18160;DHT22;9205;52.032;4.314;2022-11-20T06:01:09;1.00;99.90
18160;DHT22;9205;52.032;4.314;2022-11-20T06:03:39;0.90;99.90
18160;DHT22;9205;52.032;4.314;2022-11-20T06:06:11;0.80;99.90
18160;DHT22;9205;52.032;4.314;2022-11-20T06:08:39;0.80;99.90
18160;DHT22;9205;52.032;4.314;2022-11-20T06:11:08;0.70;99.90
18160;DHT22;9205;52.032;4.314;2022-11-20T06:13:36;0.90;99.90
18160;DHT22;9205;52.032;4.314;2022-11-20T06:16:05;0.80;99.90
18160;DHT22;9205;52.032;4.314;2022-11-20T06:18:32;0.80;99.90
18160;DHT22;9205;52.032;4.314;2022-11-20T06:21:02;0.60;99.90
18160;DHT22;9205;52.032;4.314;2022-11-20T06:23:31;0.70;99.90
18160;DHT22;9205;52.032;4.314;2022-11-20T06:26:01;0.60;99.90
18160;DHT22;9205;52.032;4.314;2022-11-20T06:28:29;0.80;99.90
18160;DHT22;9205;52.032;4.314;2022-11-20T06:30:57;0.80;99.90
18160;DHT22;9205;52.032;4.314;2022-11-20T06:33:24;0.70;99.90
18160;DHT22;9205;52.032;4.314;2022-11-20T06:35:52;0.80;99.90
18160;DHT22;9205;52.032;4.314;2022-11-20T06:38:24;0.80;99.90
18160;DHT22;9205;52.032;4.314;2022-11-20T06:40:51;0.70;99.90
18160;DHT22;9205;52.032;4.314;2022-11-20T06:43:19;0.70;99.90
18160;DHT22;9205;52.032;4.314;2022-11-20T06:45:51;0.80;99.90
18160;DHT22;9205;52.032;4.314;2022-11-20T06:48:19;0.80;99.90
18160;DHT22;9205;52.032;4.314;2022-11-20T06:50:47;1.00;99.90
18160;DHT22;9205;52.032;4.314;2022-11-20T06:53:14;0.90;99.90
18160;DHT22;9205;52.032;4.314;2022-11-20T06:55:43;0.80;99.90
18160;DHT22;9205;52.032;4.314;2022-11-20T06:58:11;0.90;99.90
18160;DHT22;9205;52.032;4.314;2022-11-20T07:00:38;0.90;99.90
18160;DHT22;9205;52.032;4.314;2022-11-20T07:03:05;1.10;99.90
18160;DHT22;9205;52.032;4.314;2022-11-20T07:05:35;0.90;99.90
18160;DHT22;9205;52.032;4.314;2022-11-20T07:08:02;0.90;99.90
18160;DHT22;9205;52.032;4.314;2022-11-20T07:10:30;0.90;99.90
18160;DHT22;9205;52.032;4.314;2022-11-20T07:12:59;1.00;99.90
18160;DHT22;9205;52.032;4.314;2022-11-20T07:15:26;1.10;99.90
18160;DHT22;9205;52.032;4.314;2022-11-20T07:17:53;1.10;99.90
18160;DHT22;9205;52.032;4.314;2022-11-20T07:20:20;1.00;99.90
18160;DHT22;9205;52.032;4.314;2022-11-20T07:22:53;1.20;99.90
18160;DHT22;9205;52.032;4.314;2022-11-20T07:25:21;1.10;99.90
18160;DHT22;9205;52.032;4.314;2022-11-20T07:27:49;1.30;99.90
18160;DHT22;9205;52.032;4.314;2022-11-20T07:30:18;1.20;99.90
18160;DHT22;9205;52.032;4.314;2022-11-20T07:32:46;1.00;99.90
18160;DHT22;9205;52.032;4.314;2022-11-20T07:35:14;1.00;99.90
18160;DHT22;9205;52.032;4.314;2022-11-20T07:37:41;1.10;99.90
18160;DHT22;9205;52.032;4.314;2022-11-20T07:40:09;1.20;99.90
18160;DHT22;9205;52.032;4.314;2022-11-20T07:42:38;1.20;99.90
18160;DHT22;9205;52.032;4.314;2022-11-20T07:45:06;1.30;99.90
18160;DHT22;9205;52.032;4.314;2022-11-20T07:47:36;1.40;99.90
18160;DHT22;9205;52.032;4.314;2022-11-20T07:50:05;1.40;99.90
18160;DHT22;9205;52.032;4.314;2022-11-20T07:52:33;1.50;99.90
18160;DHT22;9205;52.032;4.314;2022-11-20T07:55:00;1.50;99.90
18160;DHT22;9205;52.032;4.314;2022-11-20T07:57:28;1.40;99.90
18160;DHT22;9205;52.032;4.314;2022-11-20T07:59:56;1.40;99.90
18160;DHT22;9205;52.032;4.314;2022-11-20T08:02:23;1.50;99.90
18160;DHT22;9205;52.032;4.314;2022-11-20T08:04:52;1.50;99.90
18160;DHT22;9205;52.032;4.314;2022-11-20T08:07:19;1.50;99.90
18160;DHT22;9205;52.032;4.314;2022-11-20T08:09:47;1.60;99.90
18160;DHT22;9205;52.032;4.314;2022-11-20T08:12:18;1.60;99.90
18160;DHT22;9205;52.032;4.314;2022-11-20T08:15:05;1.60;99.90
18160;DHT22;9205;52.032;4.314;2022-11-20T08:17:33;1.70;99.90
18160;DHT22;9205;52.032;4.314;2022-11-20T08:20:02;1.80;99.90
18160;DHT22;9205;52.032;4.314;2022-11-20T08:22:30;1.80;99.90
18160;DHT22;9205;52.032;4.314;2022-11-20T08:24:57;1.80;99.90
18160;DHT22;9205;52.032;4.314;2022-11-20T08:27:24;1.90;99.90
18160;DHT22;9205;52.032;4.314;2022-11-20T08:29:51;1.90;99.90
18160;DHT22;9205;52.032;4.314;2022-11-20T08:32:19;2.00;99.90
18160;DHT22;9205;52.032;4.314;2022-11-20T08:34:46;2.10;99.90
18160;DHT22;9205;52.032;4.314;2022-11-20T08:37:14;2.00;99.90
18160;DHT22;9205;52.032;4.314;2022-11-20T08:39:42;2.20;99.90
18160;DHT22;9205;52.032;4.314;2022-11-20T08:42:09;2.00;99.90
18160;DHT22;9205;52.032;4.314;2022-11-20T08:44:36;2.20;99.90
18160;DHT22;9205;52.032;4.314;2022-11-20T08:47:03;2.20;99.90
18160;DHT22;9205;52.032;4.314;2022-11-20T08:49:31;2.10;99.90
18160;DHT22;9205;52.032;4.314;2022-11-20T08:51:58;2.20;99.90
18160;DHT22;9205;52.032;4.314;2022-11-20T08:54:26;2.10;99.90
18160;DHT22;9205;52.032;4.314;2022-11-20T08:56:54;2.20;99.90
18160;DHT22;9205;52.032;4.314;2022-11-20T08:59:21;2.20;99.90
18160;DHT22;9205;52.032;4.314;2022-11-20T09:01:48;2.30;99.90
18160;DHT22;9205;52.032;4.314;2022-11-20T09:04:15;2.30;99.90
18160;DHT22;9205;52.032;4.314;2022-11-20T09:06:43;2.30;99.90
18160;DHT22;9205;52.032;4.314;2022-11-20T09:09:10;2.40;99.90
18160;DHT22;9205;52.032;4.314;2022-11-20T09:11:39;2.30;99.90
18160;DHT22;9205;52.032;4.314;2022-11-20T09:14:06;2.40;99.90
18160;DHT22;9205;52.032;4.314;2022-11-20T09:16:33;2.50;99.90
18160;DHT22;9205;52.032;4.314;2022-11-20T09:19:01;2.50;99.90
18160;DHT22;9205;52.032;4.314;2022-11-20T09:21:28;2.50;99.90
18160;DHT22;9205;52.032;4.314;2022-11-20T09:23:55;2.50;99.90
18160;DHT22;9205;52.032;4.314;2022-11-20T09:26:22;2.50;99.90
18160;DHT22;9205;52.032;4.314;2022-11-20T09:28:51;2.60;99.90
18160;DHT22;9205;52.032;4.314;2022-11-20T09:31:22;2.60;99.90
18160;DHT22;9205;52.032;4.314;2022-11-20T09:33:51;2.70;99.90
18160;DHT22;9205;52.032;4.314;2022-11-20T09:36:18;2.70;99.90
18160;DHT22;9205;52.032;4.314;2022-11-20T09:38:46;2.70;99.90
18160;DHT22;9205;52.032;4.314;2022-11-20T09:41:31;2.90;99.90
18160;DHT22;9205;52.032;4.314;2022-11-20T09:44:16;2.80;99.90
18160;DHT22;9205;52.032;4.314;2022-11-20T09:47:05;2.90;99.90
18160;DHT22;9205;52.032;4.314;2022-11-20T09:49:45;2.90;99.90
18160;DHT22;9205;52.032;4.314;2022-11-20T09:52:32;3.00;99.90
18160;DHT22;9205;52.032;4.314;2022-11-20T09:55:10;3.00;99.90
18160;DHT22;9205;52.032;4.314;2022-11-20T09:57:42;2.90;99.90
18160;DHT22;9205;52.032;4.314;2022-11-20T10:00:15;2.90;99.90
18160;DHT22;9205;52.032;4.314;2022-11-20T10:02:46;3.00;99.90
18160;DHT22;9205;52.032;4.314;2022-11-20T10:05:22;3.00;99.90
18160;DHT22;9205;52.032;4.314;2022-11-20T10:07:59;3.10;99.90
18160;DHT22;9205;52.032;4.314;2022-11-20T10:10:42;3.10;99.90
18160;DHT22;9205;52.032;4.314;2022-11-20T10:13:20;3.10;99.90
18160;DHT22;9205;52.032;4.314;2022-11-20T10:16:08;3.00;99.90
18160;DHT22;9205;52.032;4.314;2022-11-20T10:18:58;3.10;99.90
18160;DHT22;9205;52.032;4.314;2022-11-20T10:21:44;3.10;99.90
18160;DHT22;9205;52.032;4.314;2022-11-20T10:24:42;3.00;99.90
18160;DHT22;9205;52.032;4.314;2022-11-20T10:27:35;3.10;99.90
18160;DHT22;9205;52.032;4.314;2022-11-20T10:30:14;3.30;99.90
18160;DHT22;9205;52.032;4.314;2022-11-20T10:32:47;3.30;99.90
18160;DHT22;9205;52.032;4.314;2022-11-20T10:35:21;3.30;99.90
18160;DHT22;9205;52.032;4.314;2022-11-20T10:37:56;3.40;99.90
18160;DHT22;9205;52.032;4.314;2022-11-20T10:40:31;3.20;99.90
18160;DHT22;9205;52.032;4.314;2022-11-20T10:43:13;3.30;99.90
18160;DHT22;9205;52.032;4.314;2022-11-20T10:45:48;3.40;99.90
18160;DHT22;9205;52.032;4.314;2022-11-20T10:48:23;3.40;99.90
18160;DHT22;9205;52.032;4.314;2022-11-20T10:51:02;3.50;99.90
18160;DHT22;9205;52.032;4.314;2022-11-20T10:53:56;3.50;99.90
18160;DHT22;9205;52.032;4.314;2022-11-20T10:56:35;3.60;99.90
18160;DHT22;9205;52.032;4.314;2022-11-20T10:59:32;3.70;99.90
18160;DHT22;9205;52.032;4.314;2022-11-20T11:02:16;3.70;99.90
18160;DHT22;9205;52.032;4.314;2022-11-20T11:04:48;3.90;99.90
18160;DHT22;9205;52.032;4.314;2022-11-20T11:07:20;4.00;99.90
18160;DHT22;9205;52.032;4.314;2022-11-20T11:09:53;3.90;99.90
18160;DHT22;9205;52.032;4.314;2022-11-20T11:12:23;3.80;99.90
18160;DHT22;9205;52.032;4.314;2022-11-20T11:14:53;3.80;99.90
18160;DHT22;9205;52.032;4.314;2022-11-20T11:17:25;4.00;99.90
18160;DHT22;9205;52.032;4.314;2022-11-20T11:20:05;4.00;99.90
18160;DHT22;9205;52.032;4.314;2022-11-20T11:22:44;4.00;99.90
18160;DHT22;9205;52.032;4.314;2022-11-20T11:25:20;4.00;99.90
18160;DHT22;9205;52.032;4.314;2022-11-20T11:27:58;3.90;99.90
18160;DHT22;9205;52.032;4.314;2022-11-20T11:30:28;4.00;99.90
18160;DHT22;9205;52.032;4.314;2022-11-20T11:33:05;4.00;99.90
18160;DHT22;9205;52.032;4.314;2022-11-20T11:35:45;4.20;99.90
18160;DHT22;9205;52.032;4.314;2022-11-20T11:38:16;4.30;99.90
18160;DHT22;9205;52.032;4.314;2022-11-20T11:40:46;4.10;99.90
18160;DHT22;9205;52.032;4.314;2022-11-20T11:43:19;4.20;99.90
18160;DHT22;9205;52.032;4.314;2022-11-20T11:46:24;4.00;99.90
18160;DHT22;9205;52.032;4.314;2022-11-20T11:48:57;4.30;99.90
18160;DHT22;9205;52.032;4.314;2022-11-20T11:51:33;4.10;99.90
18160;DHT22;9205;52.032;4.314;2022-11-20T11:54:12;4.20;99.90
18160;DHT22;9205;52.032;4.314;2022-11-20T11:56:43;4.40;99.90
18160;DHT22;9205;52.032;4.314;2022-11-20T11:59:15;4.40;99.90
18160;DHT22;9205;52.032;4.314;2022-11-20T12:01:53;4.30;99.90
18160;DHT22;9205;52.032;4.314;2022-11-20T12:04:38;4.40;99.90
18160;DHT22;9205;52.032;4.314;2022-11-20T12:07:20;4.40;99.90
18160;DHT22;9205;52.032;4.314;2022-11-20T12:10:02;4.50;99.90
18160;DHT22;9205;52.032;4.314;2022-11-20T12:12:36;4.40;99.90
18160;DHT22;9205;52.032;4.314;2022-11-20T12:15:11;4.60;99.90
18160;DHT22;9205;52.032;4.314;2022-11-20T12:17:41;4.50;99.90
18160;DHT22;9205;52.032;4.314;2022-11-20T12:20:13;4.60;99.90
18160;DHT22;9205;52.032;4.314;2022-11-20T12:22:55;4.60;99.90
18160;DHT22;9205;52.032;4.314;2022-11-20T12:25:29;4.50;99.90
18160;DHT22;9205;52.032;4.314;2022-11-20T12:28:24;4.80;99.90
18160;DHT22;9205;52.032;4.314;2022-11-20T12:31:16;4.60;99.90
18160;DHT22;9205;52.032;4.314;2022-11-20T12:34:16;4.60;99.90
18160;DHT22;9205;52.032;4.314;2022-11-20T12:36:59;4.80;99.90
18160;DHT22;9205;52.032;4.314;2022-11-20T12:39:40;4.80;99.90
18160;DHT22;9205;52.032;4.314;2022-11-20T12:42:22;4.90;99.90
18160;DHT22;9205;52.032;4.314;2022-11-20T12:45:27;4.90;99.90
18160;DHT22;9205;52.032;4.314;2022-11-20T12:48:41;4.80;99.90
18160;DHT22;9205;52.032;4.314;2022-11-20T12:51:28;5.00;99.90
18160;DHT22;9205;52.032;4.314;2022-11-20T12:54:19;4.90;99.90
18160;DHT22;9205;52.032;4.314;2022-11-20T12:57:02;5.00;99.90
18160;DHT22;9205;52.032;4.314;2022-11-20T12:59:56;5.00;99.90
18160;DHT22;9205;52.032;4.314;2022-11-20T13:02:41;5.10;99.90
18160;DHT22;9205;52.032;4.314;2022-11-20T13:05:26;4.90;99.90
18160;DHT22;9205;52.032;4.314;2022-11-20T13:08:00;4.90;99.90
18160;DHT22;9205;52.032;4.314;2022-11-20T13:10:34;5.10;99.90
18160;DHT22;9205;52.032;4.314;2022-11-20T13:13:11;5.00;99.90
18160;DHT22;9205;52.032;4.314;2022-11-20T13:15:50;4.90;99.90
18160;DHT22;9205;52.032;4.314;2022-11-20T13:18:21;4.90;99.90
18160;DHT22;9205;52.032;4.314;2022-11-20T13:20:49;5.20;99.90
18160;DHT22;9205;52.032;4.314;2022-11-20T13:23:24;5.10;99.90
18160;DHT22;9205;52.032;4.314;2022-11-20T13:26:04;5.20;99.90
18160;DHT22;9205;52.032;4.314;2022-11-20T13:28:34;5.20;99.90
18160;DHT22;9205;52.032;4.314;2022-11-20T13:31:02;5.10;99.90
18160;DHT22;9205;52.032;4.314;2022-11-20T13:33:31;5.10;99.90
18160;DHT22;9205;52.032;4.314;2022-11-20T13:36:02;4.90;99.90
18160;DHT22;9205;52.032;4.314;2022-11-20T13:38:42;4.80;99.90
18160;DHT22;9205;52.032;4.314;2022-11-20T13:41:11;4.90;99.90
18160;DHT22;9205;52.032;4.314;2022-11-20T13:44:04;5.10;99.90
18160;DHT22;9205;52.032;4.314;2022-11-20T13:46:42;4.80;99.90
18160;DHT22;9205;52.032;4.314;2022-11-20T13:49:23;5.00;99.90
18160;DHT22;9205;52.032;4.314;2022-11-20T13:52:03;5.10;99.90
18160;DHT22;9205;52.032;4.314;2022-11-20T13:55:10;4.70;99.90
18160;DHT22;9205;52.032;4.314;2022-11-20T14:00:58;5.20;99.90
18160;DHT22;9205;52.032;4.314;2022-11-20T14:03:38;5.10;99.90
18160;DHT22;9205;52.032;4.314;2022-11-20T14:06:11;4.90;99.90
18160;DHT22;9205;52.032;4.314;2022-11-20T14:08:46;5.20;99.90
18160;DHT22;9205;52.032;4.314;2022-11-20T14:11:16;4.70;99.90
18160;DHT22;9205;52.032;4.314;2022-11-20T14:13:54;4.80;99.90
18160;DHT22;9205;52.032;4.314;2022-11-20T14:16:26;4.90;99.90
18160;DHT22;9205;52.032;4.314;2022-11-20T14:18:56;4.60;99.90
18160;DHT22;9205;52.032;4.314;2022-11-20T14:21:26;5.10;99.90
18160;DHT22;9205;52.032;4.314;2022-11-20T14:24:04;5.10;99.90
18160;DHT22;9205;52.032;4.314;2022-11-20T14:26:32;4.70;99.90
18160;DHT22;9205;52.032;4.314;2022-11-20T14:29:00;4.70;99.90
18160;DHT22;9205;52.032;4.314;2022-11-20T14:31:28;5.10;99.90
18160;DHT22;9205;52.032;4.314;2022-11-20T14:33:56;4.70;99.90
18160;DHT22;9205;52.032;4.314;2022-11-20T14:36:25;4.90;99.90
18160;DHT22;9205;52.032;4.314;2022-11-20T14:38:53;4.60;99.90
18160;DHT22;9205;52.032;4.314;2022-11-20T14:41:22;5.10;99.90
18160;DHT22;9205;52.032;4.314;2022-11-20T14:43:54;4.60;99.90
18160;DHT22;9205;52.032;4.314;2022-11-20T14:46:24;5.00;99.90
18160;DHT22;9205;52.032;4.314;2022-11-20T14:48:55;5.20;99.90
18160;DHT22;9205;52.032;4.314;2022-11-20T14:51:31;5.20;99.90
18160;DHT22;9205;52.032;4.314;2022-11-20T14:54:14;5.00;99.90
18160;DHT22;9205;52.032;4.314;2022-11-20T14:56:43;4.80;99.90
18160;DHT22;9205;52.032;4.314;2022-11-20T14:59:23;5.30;99.90
18160;DHT22;9205;52.032;4.314;2022-11-20T15:01:55;4.70;99.90
18160;DHT22;9205;52.032;4.314;2022-11-20T15:04:26;4.90;99.90
18160;DHT22;9205;52.032;4.314;2022-11-20T15:06:55;5.30;99.90
18160;DHT22;9205;52.032;4.314;2022-11-20T15:09:24;4.60;99.90
18160;DHT22;9205;52.032;4.314;2022-11-20T15:11:54;5.10;99.90
18160;DHT22;9205;52.032;4.314;2022-11-20T15:14:24;5.40;99.90
18160;DHT22;9205;52.032;4.314;2022-11-20T15:16:55;5.30;99.90
18160;DHT22;9205;52.032;4.314;2022-11-20T15:19:25;5.30;99.90
18160;DHT22;9205;52.032;4.314;2022-11-20T15:21:53;5.20;99.90
18160;DHT22;9205;52.032;4.314;2022-11-20T15:24:20;5.00;99.90
18160;DHT22;9205;52.032;4.314;2022-11-20T15:26:49;5.20;99.90
18160;DHT22;9205;52.032;4.314;2022-11-20T15:29:17;5.30;99.90
18160;DHT22;9205;52.032;4.314;2022-11-20T15:31:46;5.20;99.90
18160;DHT22;9205;52.032;4.314;2022-11-20T15:34:15;5.50;99.90
18160;DHT22;9205;52.032;4.314;2022-11-20T15:36:44;5.50;99.90
18160;DHT22;9205;52.032;4.314;2022-11-20T15:39:11;5.40;99.90
18160;DHT22;9205;52.032;4.314;2022-11-20T15:41:38;5.20;99.90
18160;DHT22;9205;52.032;4.314;2022-11-20T15:44:06;5.10;99.90
18160;DHT22;9205;52.032;4.314;2022-11-20T15:46:36;5.20;99.90
18160;DHT22;9205;52.032;4.314;2022-11-20T15:49:11;5.40;99.90
18160;DHT22;9205;52.032;4.314;2022-11-20T15:51:42;5.10;99.90
18160;DHT22;9205;52.032;4.314;2022-11-20T15:54:14;5.70;99.90
18160;DHT22;9205;52.032;4.314;2022-11-20T15:56:45;5.60;99.90
18160;DHT22;9205;52.032;4.314;2022-11-20T15:59:13;5.10;99.90
18160;DHT22;9205;52.032;4.314;2022-11-20T16:01:41;5.60;99.90
18160;DHT22;9205;52.032;4.314;2022-11-20T16:04:10;5.30;99.90
18160;DHT22;9205;52.032;4.314;2022-11-20T16:06:38;5.50;99.90
18160;DHT22;9205;52.032;4.314;2022-11-20T16:09:07;5.50;99.90
18160;DHT22;9205;52.032;4.314;2022-11-20T16:11:35;5.60;99.90
18160;DHT22;9205;52.032;4.314;2022-11-20T16:14:03;5.50;99.90
18160;DHT22;9205;52.032;4.314;2022-11-20T16:16:51;5.50;99.90
18160;DHT22;9205;52.032;4.314;2022-11-20T16:19:18;5.00;99.90
18160;DHT22;9205;52.032;4.314;2022-11-20T16:21:45;4.90;99.90
18160;DHT22;9205;52.032;4.314;2022-11-20T16:24:15;4.90;99.90
18160;DHT22;9205;52.032;4.314;2022-11-20T16:26:43;4.90;99.90
18160;DHT22;9205;52.032;4.314;2022-11-20T16:29:10;4.90;99.90
18160;DHT22;9205;52.032;4.314;2022-11-20T16:31:37;5.40;99.90
18160;DHT22;9205;52.032;4.314;2022-11-20T16:34:06;5.20;99.90